createdAt,value
2023-03-03T00:02:16.278Z,102069.19
2023-03-03T00:04:48.790Z,102066.38
2023-03-03T00:07:23.467Z,102065.56
2023-03-03T00:09:56.337Z,102059.53
2023-03-03T00:12:28.689Z,102069.19
2023-03-03T00:14:58.897Z,102075.28
2023-03-03T00:17:30.339Z,102080.06
2023-03-03T00:20:06.179Z,102083.66
2023-03-03T00:22:40.403Z,102089.03
2023-03-03T00:25:31.003Z,102096.94
2023-03-03T00:28:08.388Z,102090.91
2023-03-03T00:30:38.311Z,102096.84
2023-03-03T00:33:23.546Z,102102.09
2023-03-03T00:35:55.945Z,102101.53
2023-03-03T00:38:26.343Z,102094.53
2023-03-03T00:40:56.504Z,102093.91
2023-03-03T00:43:28.147Z,102099.88
2023-03-03T00:45:59.545Z,102098.69
2023-03-03T00:48:31.426Z,102113.63
2023-03-03T00:51:12.067Z,102109.78
2023-03-03T00:53:42.213Z,102106.97
2023-03-03T00:56:11.993Z,102108.59
2023-03-03T00:58:41.956Z,102118.16
2023-03-03T01:01:11.774Z,102114.28
2023-03-03T01:03:41.650Z,102107.88
2023-03-03T01:06:15.525Z,102110.56
2023-03-03T01:08:45.240Z,102110.81
2023-03-03T01:11:19.363Z,102123.75
2023-03-03T01:13:52.819Z,102110.50
2023-03-03T01:16:23.543Z,102110.72
2023-03-03T01:18:55.254Z,102124.94
2023-03-03T01:21:28.037Z,102110.34
2023-03-03T01:23:58.246Z,102118.88
2023-03-03T01:26:31.643Z,102112.91
2023-03-03T01:29:01.325Z,102111.75
2023-03-03T01:31:31.322Z,102112.31
2023-03-03T01:34:01.242Z,102114.75
2023-03-03T01:36:33.678Z,102113.13
2023-03-03T01:39:04.095Z,102120.50
2023-03-03T01:41:35.369Z,102113.50
2023-03-03T01:44:05.463Z,102104.41
2023-03-03T01:46:44.622Z,102108.25
2023-03-03T01:49:18.505Z,102110.00
2023-03-03T01:51:58.144Z,102110.16
2023-03-03T01:54:33.358Z,102121.44
2023-03-03T01:57:08.546Z,102103.59
2023-03-03T01:59:47.426Z,102110.38
2023-03-03T02:02:17.386Z,102116.56
2023-03-03T02:04:47.332Z,102109.56
2023-03-03T02:07:22.108Z,102107.56
2023-03-03T02:10:02.137Z,102102.44
2023-03-03T02:12:36.674Z,102101.97
2023-03-03T02:15:19.431Z,102102.06
2023-03-03T02:17:51.242Z,102095.13
2023-03-03T02:20:31.832Z,102093.84
2023-03-03T02:23:10.791Z,102099.00
2023-03-03T02:25:47.238Z,102101.97
2023-03-03T02:28:20.130Z,102098.88
2023-03-03T02:30:50.423Z,102095.13
2023-03-03T02:33:20.204Z,102106.09
2023-03-03T02:35:50.396Z,102096.19
2023-03-03T02:38:28.858Z,102114.38
2023-03-03T02:41:10.227Z,102112.13
2023-03-03T02:43:48.803Z,102115.28
2023-03-03T02:46:19.307Z,102106.91
2023-03-03T02:48:49.273Z,102109.34
2023-03-03T02:51:19.136Z,102102.25
2023-03-03T02:53:49.046Z,102108.44
2023-03-03T02:56:19.408Z,102118.03
2023-03-03T02:58:51.952Z,102111.28
2023-03-03T03:01:22.441Z,102114.66
2023-03-03T03:03:52.490Z,102117.81
2023-03-03T03:06:23.682Z,102113.63
2023-03-03T03:08:56.461Z,102115.84
2023-03-03T03:11:26.283Z,102114.13
2023-03-03T03:14:00.104Z,102114.25
2023-03-03T03:16:30.163Z,102113.75
2023-03-03T03:19:00.155Z,102118.09
2023-03-03T03:21:30.182Z,102115.88
2023-03-03T03:24:00.660Z,102124.16
2023-03-03T03:26:30.527Z,102125.91
2023-03-03T03:29:03.218Z,102124.75
2023-03-03T03:31:33.862Z,102123.31
2023-03-03T03:34:03.615Z,102136.72
2023-03-03T03:36:35.703Z,102136.38
2023-03-03T03:39:06.459Z,102138.94
2023-03-03T03:41:36.505Z,102135.31
2023-03-03T03:44:08.956Z,102129.50
2023-03-03T03:46:38.824Z,102133.56
2023-03-03T03:49:08.921Z,102127.03
2023-03-03T03:51:41.588Z,102126.56
2023-03-03T03:54:11.629Z,102123.41
2023-03-03T03:56:41.611Z,102135.88
2023-03-03T03:59:14.086Z,102149.13
2023-03-03T04:01:44.099Z,102150.28
2023-03-03T04:04:14.111Z,102146.06
2023-03-03T04:06:44.128Z,102147.06
2023-03-03T04:09:14.073Z,102147.44
2023-03-03T04:11:44.196Z,102161.16
2023-03-03T04:14:16.798Z,102152.50
2023-03-03T04:16:46.898Z,102151.59
2023-03-03T04:19:16.779Z,102144.88
2023-03-03T04:21:46.669Z,102144.19
2023-03-03T04:24:16.933Z,102143.97
2023-03-03T04:26:51.482Z,102145.31
2023-03-03T04:29:24.118Z,102149.63
2023-03-03T04:31:54.119Z,102126.06
2023-03-03T04:34:24.114Z,102145.88
2023-03-03T04:36:54.061Z,102138.88
2023-03-03T04:39:24.050Z,102151.34
2023-03-03T04:41:53.951Z,102132.81
2023-03-03T04:44:27.630Z,102139.22
2023-03-03T04:46:57.589Z,102146.75
2023-03-03T04:49:27.715Z,102148.47
2023-03-03T04:51:57.712Z,102150.13
2023-03-03T04:54:27.928Z,102145.22
2023-03-03T04:56:58.745Z,102153.84
2023-03-03T04:59:31.630Z,102141.13
2023-03-03T05:02:01.559Z,102141.22
2023-03-03T05:04:33.354Z,102160.72
2023-03-03T05:07:03.372Z,102150.59
2023-03-03T05:09:33.554Z,102151.72
2023-03-03T05:12:03.592Z,102149.41
2023-03-03T05:14:36.159Z,102140.91
2023-03-03T05:17:06.252Z,102152.69
2023-03-03T05:19:36.590Z,102147.41
2023-03-03T05:22:07.928Z,102143.78
2023-03-03T05:24:37.887Z,102145.78
2023-03-03T05:27:07.992Z,102150.44
2023-03-03T05:29:40.705Z,102149.41
2023-03-03T05:32:11.024Z,102140.75
2023-03-03T05:34:41.459Z,102144.06
2023-03-03T05:37:11.701Z,102146.84
2023-03-03T05:39:42.078Z,102164.78
2023-03-03T05:42:12.431Z,102155.69
2023-03-03T05:44:45.572Z,102148.69
2023-03-03T05:47:15.768Z,102155.69
2023-03-03T05:49:45.719Z,102160.59
2023-03-03T05:52:15.592Z,102164.09
2023-03-03T05:54:45.486Z,102165.50
2023-03-03T05:57:15.693Z,102163.19
2023-03-03T05:59:48.279Z,102166.75
2023-03-03T06:02:18.287Z,102164.47
2023-03-03T06:04:48.531Z,102165.50
2023-03-03T06:07:18.448Z,102160.16
2023-03-03T06:09:48.386Z,102169.81
2023-03-03T06:12:18.744Z,102161.31
2023-03-03T06:14:51.338Z,102168.31
2023-03-03T06:17:21.534Z,102169.22
2023-03-03T06:19:51.800Z,102184.50
2023-03-03T06:22:21.761Z,102187.25
2023-03-03T06:24:55.663Z,102183.84
2023-03-03T06:27:25.624Z,102190.41
2023-03-03T06:29:58.356Z,102198.69
2023-03-03T06:32:30.645Z,102200.22
2023-03-03T06:35:00.663Z,102205.13
2023-03-03T06:37:30.687Z,102206.31
2023-03-03T06:40:01.097Z,102202.13
2023-03-03T06:42:31.337Z,102193.06
2023-03-03T06:45:04.061Z,102208.19
2023-03-03T06:47:34.158Z,102215.22
2023-03-03T06:50:04.255Z,102219.66
2023-03-03T06:52:34.452Z,102218.50
2023-03-03T06:55:16.292Z,102223.13
2023-03-03T06:57:46.411Z,102217.78
2023-03-03T07:00:23.217Z,102221.94
2023-03-03T07:03:00.453Z,102231.41
2023-03-03T07:05:33.290Z,102221.22
2023-03-03T07:08:04.419Z,102232.03
2023-03-03T07:10:35.890Z,102231.22
2023-03-03T07:13:19.276Z,102227.88
2023-03-03T07:15:53.443Z,102225.41
2023-03-03T07:18:35.252Z,102224.38
2023-03-03T07:21:17.698Z,102227.63
2023-03-03T07:23:49.418Z,102228.69
2023-03-03T07:26:23.056Z,102235.66
2023-03-03T07:28:57.556Z,102233.91
2023-03-03T07:31:37.120Z,102241.50
2023-03-03T07:34:19.054Z,102237.03
2023-03-03T07:36:49.352Z,102254.09
2023-03-03T07:39:32.297Z,102242.41
2023-03-03T07:42:17.768Z,102248.19
2023-03-03T07:44:49.103Z,102253.38
2023-03-03T07:47:25.894Z,102256.84
2023-03-03T07:50:00.128Z,102265.34
2023-03-03T07:52:34.137Z,102256.84
2023-03-03T07:55:21.584Z,102267.94
2023-03-03T07:57:59.102Z,102270.38
2023-03-03T08:01:12.844Z,102267.34
2023-03-03T08:03:47.952Z,102276.94
2023-03-03T08:06:47.529Z,102278.22
2023-03-03T08:09:33.080Z,102272.97
2023-03-03T08:12:15.028Z,102292.06
2023-03-03T08:14:45.175Z,102290.50
2023-03-03T08:17:20.627Z,102285.97
2023-03-03T08:19:54.336Z,102297.94
2023-03-03T08:22:33.449Z,102297.13
2023-03-03T08:25:03.754Z,102296.31
2023-03-03T08:27:33.678Z,102284.41
2023-03-03T08:30:03.669Z,102289.78
2023-03-03T08:32:33.770Z,102303.31
2023-03-03T08:35:06.979Z,102298.63
2023-03-03T08:37:37.158Z,102301.31
2023-03-03T08:40:07.666Z,102299.28
2023-03-03T08:42:37.703Z,102300.94
2023-03-03T08:45:08.696Z,102302.56
2023-03-03T08:47:39.258Z,102310.31
2023-03-03T08:50:12.809Z,102305.56
2023-03-03T08:52:43.455Z,102308.66
2023-03-03T08:55:13.942Z,102310.31
2023-03-03T08:57:44.206Z,102313.91
2023-03-03T09:00:17.020Z,102313.09
2023-03-03T09:02:47.287Z,102316.94
2023-03-03T09:05:21.183Z,102323.13
2023-03-03T09:07:52.384Z,102323.94
2023-03-03T09:10:29.656Z,102317.75
2023-03-03T09:13:02.031Z,102330.13
2023-03-03T09:15:34.040Z,102331.31
2023-03-03T09:18:16.958Z,102332.59
2023-03-03T09:20:51.213Z,102327.34
2023-03-03T09:23:37.288Z,102330.50
2023-03-03T09:26:32.689Z,102333.41
2023-03-03T09:29:13.312Z,102329.72
2023-03-03T09:31:46.408Z,102337.25
2023-03-03T09:34:23.877Z,102329.78
2023-03-03T09:37:00.277Z,102331.50
2023-03-03T09:39:33.847Z,102341.34
2023-03-03T09:42:36.401Z,102334.88
2023-03-03T09:45:24.029Z,102345.16
2023-03-03T09:48:13.995Z,102346.94
2023-03-03T09:50:55.246Z,102353.50
2023-03-03T09:53:45.477Z,102345.56
2023-03-03T09:56:22.663Z,102350.28
2023-03-03T09:59:07.694Z,102344.91
2023-03-03T10:01:53.581Z,102358.09
2023-03-03T10:04:45.627Z,102347.81
2023-03-03T10:07:31.196Z,102355.31
2023-03-03T10:10:23.074Z,102359.13
2023-03-03T10:13:09.616Z,102359.13
2023-03-03T10:15:54.315Z,102353.28
2023-03-03T10:18:33.852Z,102356.78
2023-03-03T10:21:14.844Z,102361.09
2023-03-03T10:23:59.315Z,102363.09
2023-03-03T10:27:13.518Z,102357.03
2023-03-03T10:29:56.735Z,102366.91
2023-03-03T10:33:06.097Z,102360.00
2023-03-03T10:36:05.844Z,102367.38
2023-03-03T10:38:49.626Z,102379.28
2023-03-03T10:41:33.966Z,102379.28
2023-03-03T10:44:21.979Z,102368.53
2023-03-03T10:47:05.441Z,102367.38
2023-03-03T10:49:51.393Z,102371.09
2023-03-03T10:52:34.383Z,102370.78
2023-03-03T10:55:21.058Z,102365.28
2023-03-03T10:58:03.322Z,102369.00
2023-03-03T11:00:42.420Z,102368.09
2023-03-03T11:03:50.310Z,102370.53
2023-03-03T11:06:28.107Z,102374.28
2023-03-03T11:09:03.060Z,102369.53
2023-03-03T11:11:44.773Z,102371.03
2023-03-03T11:14:19.437Z,102371.59
2023-03-03T11:17:04.385Z,102372.91
2023-03-03T11:19:46.764Z,102364.88
2023-03-03T11:22:30.963Z,102363.81
2023-03-03T11:25:11.596Z,102368.38
2023-03-03T11:28:19.222Z,102367.31
2023-03-03T11:31:03.671Z,102353.88
2023-03-03T11:33:43.671Z,102356.69
2023-03-03T11:36:19.415Z,102347.13
2023-03-03T11:38:59.564Z,102355.66
2023-03-03T11:41:43.652Z,102344.28
2023-03-03T11:44:24.026Z,102358.34
2023-03-03T11:46:59.893Z,102345.94
2023-03-03T11:49:39.860Z,102341.84
2023-03-03T11:52:25.112Z,102344.53
2023-03-03T11:55:00.616Z,102332.00
2023-03-03T11:57:35.970Z,102324.41
2023-03-03T12:00:27.132Z,102340.63
2023-03-03T12:03:20.039Z,102334.28
2023-03-03T12:06:01.520Z,102335.59
2023-03-03T12:08:44.120Z,102325.97
2023-03-03T12:11:24.699Z,102336.72
2023-03-03T12:14:01.473Z,102330.13
2023-03-03T12:16:45.789Z,102332.91
2023-03-03T12:19:28.308Z,102322.25
2023-03-03T12:22:17.114Z,102318.28
2023-03-03T12:25:20.920Z,102321.19
2023-03-03T12:27:57.874Z,102319.16
2023-03-03T12:30:56.077Z,102308.00
2023-03-03T12:33:35.225Z,102304.94
2023-03-03T12:36:18.936Z,102309.09
2023-03-03T12:38:59.112Z,102312.09
2023-03-03T12:41:38.715Z,102302.16
2023-03-03T12:44:16.742Z,102307.06
2023-03-03T12:46:49.673Z,102301.53
2023-03-03T12:49:19.580Z,102308.63
2023-03-03T12:52:09.164Z,102309.59
2023-03-03T12:54:56.397Z,102306.19
2023-03-03T12:57:35.661Z,102307.59
2023-03-03T13:00:30.283Z,102304.41
2023-03-03T13:03:09.603Z,102308.25
2023-03-03T13:05:52.745Z,102305.94
2023-03-03T13:08:40.869Z,102306.41
2023-03-03T13:11:31.375Z,102302.22
2023-03-03T13:14:11.575Z,102304.50
2023-03-03T13:16:47.414Z,102302.75
2023-03-03T13:19:23.242Z,102292.38
2023-03-03T13:21:58.569Z,102294.19
2023-03-03T13:24:37.553Z,102287.88
2023-03-03T13:27:14.050Z,102286.84
2023-03-03T13:29:45.660Z,102294.94
2023-03-03T13:32:21.623Z,102287.94
2023-03-03T13:34:58.257Z,102286.31
2023-03-03T13:37:32.747Z,102287.63
2023-03-03T13:40:08.670Z,102279.09
2023-03-03T13:42:44.735Z,102278.94
2023-03-03T13:45:26.657Z,102272.28
2023-03-03T13:48:03.066Z,102266.97
2023-03-03T13:50:38.311Z,102265.81
2023-03-03T13:53:27.529Z,102260.75
2023-03-03T13:56:04.392Z,102252.69
2023-03-03T13:58:45.355Z,102258.69
2023-03-03T14:01:21.512Z,102247.94
2023-03-03T14:04:02.700Z,102253.41
2023-03-03T14:06:33.371Z,102251.06
2023-03-03T14:09:12.376Z,102247.63
2023-03-03T14:11:50.049Z,102242.28
2023-03-03T14:14:42.746Z,102250.19
2023-03-03T14:17:19.545Z,102245.75
2023-03-03T14:19:57.818Z,102242.56
2023-03-03T14:22:36.740Z,102233.41
2023-03-03T14:25:11.691Z,102234.00
2023-03-03T14:27:44.070Z,102226.81
2023-03-03T14:30:35.877Z,102237.06
2023-03-03T14:33:18.845Z,102242.56
2023-03-03T14:35:54.872Z,102227.75
2023-03-03T14:38:27.923Z,102233.44
2023-03-03T14:41:09.163Z,102225.06
2023-03-03T14:43:40.673Z,102217.81
2023-03-03T14:46:36.497Z,102212.69
2023-03-03T14:49:09.079Z,102219.53
2023-03-03T14:51:48.385Z,102215.50
2023-03-03T14:54:25.245Z,102214.78
2023-03-03T14:57:10.864Z,102213.47
2023-03-03T14:59:40.942Z,102208.09
2023-03-03T15:02:39.012Z,102201.59
2023-03-03T15:05:33.015Z,102198.91
2023-03-03T15:08:13.347Z,102191.91
2023-03-03T15:10:45.124Z,102196.84
2023-03-03T15:13:36.546Z,102190.88
2023-03-03T15:16:15.040Z,102202.56
2023-03-03T15:19:21.095Z,102200.69
2023-03-03T15:22:03.682Z,102191.22
2023-03-03T15:24:41.649Z,102189.59
2023-03-03T15:27:20.580Z,102184.97
2023-03-03T15:30:04.103Z,102187.66
2023-03-03T15:32:40.948Z,102177.97
2023-03-03T15:35:28.468Z,102172.28
2023-03-03T15:38:05.821Z,102164.47
2023-03-03T15:40:42.273Z,102164.72
2023-03-03T15:43:23.457Z,102157.41
2023-03-03T15:46:01.868Z,102154.19
2023-03-03T15:49:03.697Z,102161.78
2023-03-03T15:52:03.678Z,102156.91
2023-03-03T15:54:45.408Z,102157.16
2023-03-03T15:57:25.146Z,102159.59
2023-03-03T16:00:12.129Z,102154.72
2023-03-03T16:02:52.429Z,102161.72
2023-03-03T16:05:26.628Z,102153.06
2023-03-03T16:08:14.186Z,102155.22
2023-03-03T16:10:55.481Z,102162.78
2023-03-03T16:13:35.753Z,102163.56
2023-03-03T16:16:15.839Z,102156.81
2023-03-03T16:19:01.101Z,102163.22
2023-03-03T16:21:53.544Z,102162.97
2023-03-03T16:24:35.276Z,102158.88
2023-03-03T16:27:15.975Z,102160.53
2023-03-03T16:30:06.163Z,102171.59
2023-03-03T16:32:43.766Z,102165.38
2023-03-03T16:35:25.214Z,102169.13
2023-03-03T16:38:01.208Z,102167.75
2023-03-03T16:40:37.549Z,102172.31
2023-03-03T16:43:21.879Z,102171.75
2023-03-03T16:45:52.692Z,102164.72
2023-03-03T16:48:35.490Z,102177.91
2023-03-03T16:51:17.687Z,102181.41
2023-03-03T16:53:57.212Z,102181.34
2023-03-03T16:56:36.965Z,102182.41
2023-03-03T16:59:24.028Z,102186.22
2023-03-03T17:02:06.414Z,102184.09
2023-03-03T17:04:46.263Z,102181.94
2023-03-03T17:07:34.239Z,102193.81
2023-03-03T17:10:19.666Z,102191.13
2023-03-03T17:13:19.348Z,102191.03
2023-03-03T17:16:03.088Z,102200.22
2023-03-03T17:18:43.329Z,102202.88
2023-03-03T17:21:23.325Z,102205.03
2023-03-03T17:24:04.313Z,102207.19
2023-03-03T17:26:46.036Z,102203.31
2023-03-03T17:29:43.415Z,102216.69
2023-03-03T17:32:28.586Z,102213.94
2023-03-03T17:35:17.074Z,102219.81
2023-03-03T17:37:57.121Z,102220.06
2023-03-03T17:40:44.883Z,102214.56
2023-03-03T17:43:20.229Z,102226.69
2023-03-03T17:45:55.806Z,102218.53
2023-03-03T17:48:50.888Z,102222.19
2023-03-03T17:51:37.332Z,102228.09
2023-03-03T17:54:31.176Z,102232.88
2023-03-03T17:57:14.163Z,102223.91
2023-03-03T18:00:09.624Z,102230.81
2023-03-03T18:03:11.954Z,102228.88
2023-03-03T18:06:15.904Z,102233.97
2023-03-03T18:09:13.614Z,102232.00
2023-03-03T18:12:00.961Z,102234.16
2023-03-03T18:14:49.755Z,102246.50
2023-03-03T18:17:38.367Z,102239.41
2023-03-03T18:20:49.948Z,102239.66
2023-03-03T18:23:34.148Z,102241.78
2023-03-03T18:26:05.378Z,102235.63
2023-03-03T18:28:49.784Z,102241.53
2023-03-03T18:31:27.994Z,102243.16
2023-03-03T18:34:10.031Z,102243.66
2023-03-03T18:36:56.069Z,102244.75
2023-03-03T18:39:45.710Z,102247.44
2023-03-03T18:42:38.173Z,102249.06
2023-03-03T18:45:44.030Z,102253.31
2023-03-03T18:48:15.216Z,102247.09
2023-03-03T18:50:47.424Z,102251.69
2023-03-03T18:53:28.813Z,102249.25
2023-03-03T18:56:00.743Z,102261.97
2023-03-03T18:58:42.513Z,102262.22
2023-03-03T19:01:39.253Z,102257.25
2023-03-03T19:04:24.790Z,102264.28
2023-03-03T19:07:13.539Z,102269.19
2023-03-03T19:09:57.351Z,102270.47
2023-03-03T19:12:46.776Z,102276.03
2023-03-03T19:15:51.872Z,102282.75
2023-03-03T19:18:25.826Z,102278.50
2023-03-03T19:21:00.109Z,102280.41
2023-03-03T19:23:52.772Z,102282.19
2023-03-03T19:26:53.279Z,102282.75
2023-03-03T19:29:53.134Z,102276.38
2023-03-03T19:33:02.670Z,102265.09
2023-03-03T19:35:41.644Z,102265.72
2023-03-03T19:38:25.528Z,102267.34
2023-03-03T19:41:01.581Z,102270.63
2023-03-03T19:43:41.981Z,102273.06
2023-03-03T19:46:30.014Z,102258.22
2023-03-03T19:49:13.885Z,102260.03
2023-03-03T19:51:53.255Z,102260.50
2023-03-03T19:54:37.452Z,102260.50
2023-03-03T19:57:14.437Z,102259.69
2023-03-03T19:59:51.321Z,102261.31
2023-03-03T20:02:37.903Z,102258.41
2023-03-03T20:05:22.695Z,102254.13
2023-03-03T20:08:00.155Z,102250.69
2023-03-03T20:10:51.217Z,102249.63
2023-03-03T20:13:58.122Z,102255.56
2023-03-03T20:16:41.533Z,102260.50
2023-03-03T20:19:27.838Z,102252.94
2023-03-03T20:22:12.031Z,102264.56
2023-03-03T20:24:57.792Z,102260.50
2023-03-03T20:27:36.421Z,102263.22
2023-03-03T20:30:13.366Z,102264.06
2023-03-03T20:32:57.672Z,102261.59
2023-03-03T20:35:40.019Z,102268.63
2023-03-03T20:38:25.327Z,102271.56
2023-03-03T20:41:06.320Z,102276.16
2023-03-03T20:43:50.532Z,102284.25
2023-03-03T20:46:25.963Z,102280.25
2023-03-03T20:49:14.045Z,102286.69
2023-03-03T20:51:50.089Z,102282.19
2023-03-03T20:54:30.042Z,102279.41
2023-03-03T20:57:09.137Z,102283.50
2023-03-03T20:59:45.211Z,102287.56
2023-03-03T21:02:23.707Z,102282.69
2023-03-03T21:05:12.384Z,102290.72
2023-03-03T21:07:53.878Z,102285.81
2023-03-03T21:10:28.402Z,102287.94
2023-03-03T21:13:01.118Z,102287.44
2023-03-03T21:15:34.065Z,102297.09
2023-03-03T21:18:22.467Z,102287.13
2023-03-03T21:20:52.645Z,102288.19
2023-03-03T21:23:23.466Z,102289.00
2023-03-03T21:25:58.643Z,102284.16
2023-03-03T21:28:30.706Z,102294.47
2023-03-03T21:31:13.310Z,102290.19
2023-03-03T21:33:54.783Z,102291.25
2023-03-03T21:36:26.645Z,102282.69
2023-03-03T21:38:58.552Z,102282.69
2023-03-03T21:41:31.142Z,102289.16
2023-03-03T21:44:00.925Z,102284.31
2023-03-03T21:46:30.900Z,102282.44
2023-03-03T21:49:00.656Z,102284.31
2023-03-03T21:51:30.671Z,102289.72
2023-03-03T21:54:00.513Z,102282.69
2023-03-03T21:56:35.169Z,102289.97
2023-03-03T21:59:04.976Z,102291.03
2023-03-03T22:01:37.740Z,102289.72
2023-03-03T22:04:08.671Z,102290.78
2023-03-03T22:06:39.893Z,102290.19
2023-03-03T22:09:10.629Z,102288.34
2023-03-03T22:11:43.378Z,102286.13
2023-03-03T22:14:13.278Z,102288.56
2023-03-03T22:16:43.292Z,102282.38
2023-03-03T22:19:13.168Z,102284.50
2023-03-03T22:21:43.877Z,102290.72
2023-03-03T22:24:13.791Z,102286.94
2023-03-03T22:26:46.707Z,102286.13
2023-03-03T22:29:17.252Z,102290.72
2023-03-03T22:31:47.185Z,102278.78
2023-03-03T22:34:17.995Z,102282.53
2023-03-03T22:36:47.741Z,102285.75
2023-03-03T22:39:17.570Z,102290.88
2023-03-03T22:41:49.921Z,102282.78
2023-03-03T22:44:19.891Z,102281.41
2023-03-03T22:46:49.628Z,102283.31
2023-03-03T22:49:19.541Z,102276.03
2023-03-03T22:51:49.356Z,102281.41
2023-03-03T22:54:19.141Z,102274.97
2023-03-03T22:56:51.806Z,102273.88
2023-03-03T22:59:22.196Z,102283.88
2023-03-03T23:01:52.022Z,102277.16
2023-03-03T23:04:21.891Z,102282.06
2023-03-03T23:06:52.004Z,102279.09
2023-03-03T23:09:21.850Z,102276.72
2023-03-03T23:11:54.810Z,102267.00
2023-03-03T23:14:24.577Z,102275.66
2023-03-03T23:16:54.588Z,102273.78
2023-03-03T23:19:24.496Z,102276.50
2023-03-03T23:21:54.420Z,102280.56
2023-03-03T23:24:24.208Z,102282.19
2023-03-03T23:26:58.197Z,102276.22
2023-03-03T23:29:28.272Z,102281.63
2023-03-03T23:31:58.030Z,102280.56
2023-03-03T23:34:27.984Z,102276.78
2023-03-03T23:36:57.968Z,102272.22
2023-03-03T23:39:28.057Z,102272.22
2023-03-03T23:42:00.453Z,102276.78
2023-03-03T23:44:30.237Z,102269.78
2023-03-03T23:47:00.052Z,102275.66
2023-03-03T23:49:29.928Z,102278.38
2023-03-03T23:51:59.680Z,102275.34
2023-03-03T23:54:29.994Z,102272.63
2023-03-03T23:57:02.483Z,102283.19
2023-03-03T23:59:32.427Z,102271.09
